»·PEaware :: ASA982 KSEA-KSFO

ASA982 :: KSEA-KSFO

FLIGHT INFORMATION

Flight Status: Arrived
Operator:
Alaska Airlines
More flights by this operator :: More flights under this callsign
Pilot: Anonymous 15639 (15639)
Aircraft: BOEING 727-200
(B722)
More flights by this aircraft type
Origin: KSEA Seattle-Tacoma Intl
United States
Destination: KSFO San Francisco Intl
United States
More flights between these airports :: More routes between these airports
Route: +ELMAA3 CVO J589 RBG J143 ENI PYE3
File this flight plan on PilotEdge
Remarks:
Altitude:
(Current/Filed)
31,000ft
Speed:
(Current/Filed)
487kts
Departed: 21-Aug-18 12:00 PM
Arrived: 21-Aug-18 01:40 PM
Distance/Time
Traveled:
590nm/1:39
Distance/Time
To Go:
Arrived

Flight Plot

Page will automatically refresh every two minutes.

Flight plan parsing failed; only flown route is shown


Map Options




Map Legend


Flown Route
Filed Route
Departure Airport
Arrival Airport
Navaid (VOR, NDB)
Fix

Horizontal Profiles

Position Reports

Time Latitude Longitude Heading Altitude Ground
Speed
21-Aug-18 11:26 47.446011 -122.300863 152 444ft 0kts
21-Aug-18 11:27 47.446011 -122.300863 152 444ft 0kts
21-Aug-18 11:28 47.446011 -122.300863 152 444ft 0kts
21-Aug-18 11:29 47.446011 -122.300863 152 444ft 0kts
21-Aug-18 11:30 47.446011 -122.300863 152 444ft 0kts
21-Aug-18 11:31 47.446011 -122.300863 152 444ft 0kts
21-Aug-18 11:32 47.446011 -122.300863 152 444ft 0kts
21-Aug-18 11:33 47.446011 -122.300863 152 444ft 0kts
21-Aug-18 11:34 47.446011 -122.300863 152 444ft 0kts
21-Aug-18 11:35 47.446011 -122.300863 152 444ft 0kts
21-Aug-18 11:36 47.446011 -122.300863 152 444ft 0kts
21-Aug-18 11:37 47.446011 -122.300863 152 444ft 0kts
21-Aug-18 11:38 47.446011 -122.300863 152 444ft 0kts
21-Aug-18 11:39 47.446011 -122.300863 152 444ft 0kts
21-Aug-18 11:40 47.446011 -122.300863 152 444ft 0kts
21-Aug-18 11:41 47.446011 -122.300863 152 444ft 0kts
21-Aug-18 11:42 47.446011 -122.300863 152 444ft 0kts
21-Aug-18 11:43 47.446011 -122.300863 152 444ft 0kts
21-Aug-18 11:44 47.446011 -122.300863 152 444ft 0kts
21-Aug-18 11:45 47.446011 -122.300863 152 444ft 0kts
21-Aug-18 11:46 47.446011 -122.300863 152 444ft 0kts
21-Aug-18 11:47 47.446011 -122.300863 152 444ft 0kts
21-Aug-18 11:48 47.446456 -122.301208 152 445ft 2kts
21-Aug-18 11:49 47.446720 -122.301735 79 445ft 1kts
21-Aug-18 11:50 47.446707 -122.301819 79 444ft 0kts
21-Aug-18 11:51 47.446707 -122.301819 79 444ft 0kts
21-Aug-18 11:52 47.446814 -122.301096 72 444ft 6kts
21-Aug-18 11:53 47.448200 -122.299793 356 444ft 7kts
21-Aug-18 11:54 47.450063 -122.302423 284 444ft 9kts
21-Aug-18 11:55 47.450109 -122.303153 270 444ft 1kts
21-Aug-18 11:56 47.450310 -122.306022 313 444ft 8kts
21-Aug-18 11:57 47.452450 -122.306228 358 444ft 10kts
21-Aug-18 11:58 47.456624 -122.306178 0 444ft 15kts
21-Aug-18 11:59 47.460505 -122.306152 0 444ft 12kts
21-Aug-18 12:00 47.463621 -122.306384 319 444ft 7kts
21-Aug-18 12:01 47.454042 -122.307862 180 445ft 131kts
21-Aug-18 12:02 47.408299 -122.304531 178 1966ft 183kts
21-Aug-18 12:03 47.355922 -122.309488 199 3589ft 200kts
21-Aug-18 12:04 47.340104 -122.382471 264 5339ft 219kts
21-Aug-18 12:05 47.332639 -122.475920 265 7482ft 249kts
21-Aug-18 12:06 47.323718 -122.578715 265 9719ft 275kts
21-Aug-18 12:07 47.315064 -122.691099 257 12209ft 289kts
21-Aug-18 12:08 47.289540 -122.811077 256 13998ft 324kts
21-Aug-18 12:09 47.258835 -122.938140 248 15975ft 343kts
21-Aug-18 12:10 47.223317 -123.074632 250 17381ft 373kts
21-Aug-18 12:11 47.184221 -123.220642 249 19041ft 390kts
21-Aug-18 12:12 47.142210 -123.369631 247 20686ft 401kts
21-Aug-18 12:13 47.052270 -123.450063 175 22032ft 404kts
21-Aug-18 12:14 46.939498 -123.434165 170 23308ft 415kts
21-Aug-18 12:15 46.824201 -123.416209 170 24444ft 426kts
21-Aug-18 12:16 46.706497 -123.398522 170 25562ft 433kts
21-Aug-18 12:17 46.586630 -123.380551 170 26566ft 441kts
21-Aug-18 12:18 46.464382 -123.360431 169 27490ft 447kts
21-Aug-18 12:19 46.340018 -123.340099 174 28356ft 455kts
21-Aug-18 12:20 46.212706 -123.337121 175 29146ft 462kts
21-Aug-18 12:21 46.105605 -123.334349 175 29753ft 467kts
21-Aug-18 12:22 45.954763 -123.330416 175 30541ft 473kts
21-Aug-18 12:23 45.823347 -123.327010 175 31100ft 479kts
21-Aug-18 12:24 45.711636 -123.324138 175 31095ft 493kts
21-Aug-18 12:25 45.574730 -123.320658 175 31091ft 496kts
21-Aug-18 12:26 45.437529 -123.317168 175 31079ft 495kts
21-Aug-18 12:27 45.300679 -123.313697 175 31077ft 495kts
21-Aug-18 12:28 45.163932 -123.310250 175 31077ft 494kts
21-Aug-18 12:29 45.027291 -123.306877 175 31074ft 495kts
21-Aug-18 12:30 44.891340 -123.303429 174 31067ft 496kts
21-Aug-18 12:31 44.754760 -123.300040 174 31052ft 496kts
21-Aug-18 12:32 44.618118 -123.296675 174 31055ft 496kts
21-Aug-18 12:33 44.481705 -123.295250 177 31056ft 497kts
21-Aug-18 12:34 44.343701 -123.301003 176 31057ft 497kts
21-Aug-18 12:35 44.208724 -123.303214 177 31054ft 498kts
21-Aug-18 12:36 44.068805 -123.309409 177 31052ft 500kts
21-Aug-18 12:37 43.930271 -123.316164 177 31053ft 501kts
21-Aug-18 12:38 43.792353 -123.322842 177 31043ft 501kts
21-Aug-18 12:39 43.654333 -123.329547 177 31027ft 502kts
21-Aug-18 12:40 43.516513 -123.336235 177 31038ft 501kts
21-Aug-18 12:41 43.377514 -123.342952 177 31040ft 502kts
21-Aug-18 12:42 43.238525 -123.349631 177 31041ft 502kts
21-Aug-18 12:43 43.099330 -123.350917 174 31043ft 501kts
21-Aug-18 12:44 42.960754 -123.347027 175 31045ft 502kts
21-Aug-18 12:45 42.822340 -123.343721 176 31035ft 501kts
21-Aug-18 12:46 42.683708 -123.340492 176 31036ft 501kts
21-Aug-18 12:47 42.544762 -123.337226 176 31037ft 500kts
21-Aug-18 12:48 42.406337 -123.333993 176 31038ft 500kts
21-Aug-18 12:49 42.267754 -123.330771 176 31040ft 499kts
21-Aug-18 12:50 42.129425 -123.327563 176 31041ft 500kts
21-Aug-18 12:51 41.990463 -123.324363 176 31042ft 500kts
21-Aug-18 12:52 41.852617 -123.321228 176 31036ft 500kts
21-Aug-18 12:53 41.714255 -123.327021 184 31049ft 501kts
21-Aug-18 12:54 41.576075 -123.332406 177 31034ft 498kts
21-Aug-18 12:55 41.437566 -123.330088 176 31036ft 498kts
21-Aug-18 12:56 41.299714 -123.326842 176 31037ft 499kts
21-Aug-18 12:57 41.161174 -123.323506 176 31040ft 500kts
21-Aug-18 12:58 41.051680 -123.320519 179 31036ft 501kts
21-Aug-18 12:59 40.912890 -123.317348 182 31021ft 499kts
21-Aug-18 13:00 40.776088 -123.314289 182 31014ft 497kts
21-Aug-18 13:01 40.638971 -123.311030 182 31014ft 495kts
21-Aug-18 13:02 40.501759 -123.307799 182 31015ft 493kts
21-Aug-18 13:03 40.365288 -123.304594 182 31017ft 491kts
21-Aug-18 13:04 40.229243 -123.301356 182 31020ft 490kts
21-Aug-18 13:05 40.093907 -123.298224 182 31025ft 489kts
21-Aug-18 13:06 39.958480 -123.295062 182 31039ft 488kts
21-Aug-18 13:07 39.823662 -123.291969 182 31030ft 487kts
21-Aug-18 13:08 39.689800 -123.288885 182 31032ft 486kts
21-Aug-18 13:09 39.556747 -123.285834 182 31034ft 486kts
21-Aug-18 13:10 39.422360 -123.282779 182 31032ft 485kts
21-Aug-18 13:11 39.290708 -123.279704 182 31035ft 485kts
21-Aug-18 13:12 39.156695 -123.276703 182 31036ft 485kts
21-Aug-18 13:13 39.021791 -123.270721 171 31020ft 489kts
21-Aug-18 13:14 38.895078 -123.210302 164 30957ft 480kts
21-Aug-18 13:15 38.773748 -123.158917 164 29018ft 463kts
21-Aug-18 13:16 38.655671 -123.108031 164 26974ft 450kts
21-Aug-18 13:17 38.540707 -123.059649 164 25026ft 436kts
21-Aug-18 13:18 38.427867 -123.012475 164 23116ft 423kts
21-Aug-18 13:19 38.319603 -122.967387 164 21117ft 415kts
21-Aug-18 13:20 38.211650 -122.922565 163 19110ft 407kts
21-Aug-18 13:21 38.107744 -122.873695 152 17279ft 396kts
21-Aug-18 13:22 38.019177 -122.795975 142 15520ft 385kts
21-Aug-18 13:23 37.938286 -122.712581 140 13817ft 373kts
21-Aug-18 13:24 37.861904 -122.632299 141 10857ft 361kts
21-Aug-18 13:25 37.792405 -122.558001 139 10997ft 302kts
21-Aug-18 13:26 37.728238 -122.493157 141 11004ft 290kts
21-Aug-18 13:27 37.666232 -122.431388 141 10999ft 280kts
21-Aug-18 13:28 37.606515 -122.371958 141 10987ft 263kts
21-Aug-18 13:29 37.546575 -122.312230 142 9352ft 278kts
21-Aug-18 13:30 37.488032 -122.253820 142 8210ft 274kts
21-Aug-18 13:31 37.428956 -122.195258 142 7065ft 271kts
21-Aug-18 13:32 37.373185 -122.133897 110 6003ft 259kts
21-Aug-18 13:33 37.405587 -122.069627 23 6014ft 251kts
21-Aug-18 13:34 37.469448 -122.075715 321 5253ft 262kts
21-Aug-18 13:35 37.515448 -122.132846 300 3890ft 224kts
21-Aug-18 13:36 37.545017 -122.193758 296 2988ft 188kts
21-Aug-18 13:37 37.567076 -122.246678 298 2129ft 141kts
21-Aug-18 13:38 37.585075 -122.289133 298 1326ft 135kts
21-Aug-18 13:39 37.602924 -122.331835 297 538ft 137kts
21-Aug-18 13:40 37.620160 -122.372908 297 25ft 86kts
21-Aug-18 13:41 37.622272 -122.381481 273 25ft 10kts
21-Aug-18 13:42 37.620437 -122.383369 167 25ft 8kts
21-Aug-18 13:43 37.618978 -122.380501 125 25ft 11kts
21-Aug-18 13:44 37.615593 -122.380342 210 25ft 14kts
21-Aug-18 13:45 37.614724 -122.381667 297 25ft 0kts
21-Aug-18 13:46 37.614723 -122.381666 297 25ft 0kts

Navigation Log

Ident Type
Flight plan parsing failed, navigation log unavailable